sensor_id;sensor_type;location;lat;lon;timestamp;P1;durP1;ratioP1;P2;durP2;ratioP2
12800;SDS011;6464;42.494;27.470;2023-07-16T04:04:54;0.00;;;0.00;;
12800;SDS011;6464;42.494;27.470;2023-07-16T04:07:43;0.00;;;0.00;;
12800;SDS011;6464;42.494;27.470;2023-07-16T04:10:28;0.00;;;0.00;;
12800;SDS011;6464;42.494;27.470;2023-07-16T04:13:39;0.00;;;0.00;;
12800;SDS011;6464;42.494;27.470;2023-07-16T04:16:38;0.00;;;0.00;;
12800;SDS011;6464;42.494;27.470;2023-07-16T04:22:32;0.00;;;0.00;;
12800;SDS011;6464;42.494;27.470;2023-07-16T04:25:18;0.00;;;0.00;;
12800;SDS011;6464;42.494;27.470;2023-07-16T04:27:49;0.00;;;0.00;;
12800;SDS011;6464;42.494;27.470;2023-07-16T04:30:22;0.00;;;0.00;;
12800;SDS011;6464;42.494;27.470;2023-07-16T04:33:06;0.00;;;0.00;;
12800;SDS011;6464;42.494;27.470;2023-07-16T04:35:40;0.00;;;0.00;;
12800;SDS011;6464;42.494;27.470;2023-07-16T04:38:29;0.00;;;0.00;;
12800;SDS011;6464;42.494;27.470;2023-07-16T04:41:19;0.00;;;0.00;;
12800;SDS011;6464;42.494;27.470;2023-07-16T04:43:54;0.00;;;0.00;;
12800;SDS011;6464;42.494;27.470;2023-07-16T04:46:39;0.00;;;0.00;;
12800;SDS011;6464;42.494;27.470;2023-07-16T04:49:42;0.00;;;0.00;;
12800;SDS011;6464;42.494;27.470;2023-07-16T04:59:14;0.00;;;0.00;;
12800;SDS011;6464;42.494;27.470;2023-07-16T05:01:58;0.00;;;0.00;;
12800;SDS011;6464;42.494;27.470;2023-07-16T05:04:27;0.00;;;0.00;;
12800;SDS011;6464;42.494;27.470;2023-07-16T05:07:04;0.00;;;0.00;;
12800;SDS011;6464;42.494;27.470;2023-07-16T05:09:37;0.00;;;0.00;;
12800;SDS011;6464;42.494;27.470;2023-07-16T05:12:07;0.00;;;0.00;;
12800;SDS011;6464;42.494;27.470;2023-07-16T05:14:48;0.00;;;0.00;;
12800;SDS011;6464;42.494;27.470;2023-07-16T05:17:21;0.00;;;0.00;;
12800;SDS011;6464;42.494;27.470;2023-07-16T05:20:06;0.00;;;0.00;;
12800;SDS011;6464;42.494;27.470;2023-07-16T05:22:36;0.00;;;0.00;;
12800;SDS011;6464;42.494;27.470;2023-07-16T05:25:16;0.10;;;0.10;;
12800;SDS011;6464;42.494;27.470;2023-07-16T05:27:46;0.00;;;0.00;;
12800;SDS011;6464;42.494;27.470;2023-07-16T05:30:46;0.10;;;0.10;;
12800;SDS011;6464;42.494;27.470;2023-07-16T05:33:24;0.10;;;0.10;;
12800;SDS011;6464;42.494;27.470;2023-07-16T05:35:55;0.10;;;0.10;;
12800;SDS011;6464;42.494;27.470;2023-07-16T05:38:26;0.10;;;0.10;;
12800;SDS011;6464;42.494;27.470;2023-07-16T05:41:03;0.10;;;0.10;;
12800;SDS011;6464;42.494;27.470;2023-07-16T05:43:46;0.10;;;0.10;;
12800;SDS011;6464;42.494;27.470;2023-07-16T05:46:20;0.10;;;0.10;;
12800;SDS011;6464;42.494;27.470;2023-07-16T05:48:52;0.20;;;0.20;;
12800;SDS011;6464;42.494;27.470;2023-07-16T05:51:25;0.20;;;0.20;;
12800;SDS011;6464;42.494;27.470;2023-07-16T05:53:52;0.40;;;0.40;;
12800;SDS011;6464;42.494;27.470;2023-07-16T05:56:19;0.50;;;0.50;;
12800;SDS011;6464;42.494;27.470;2023-07-16T05:58:52;0.60;;;0.60;;
12800;SDS011;6464;42.494;27.470;2023-07-16T06:01:20;0.80;;;0.80;;
12800;SDS011;6464;42.494;27.470;2023-07-16T06:03:47;0.77;;;0.77;;
12800;SDS011;6464;42.494;27.470;2023-07-16T06:06:15;0.90;;;0.90;;
12800;SDS011;6464;42.494;27.470;2023-07-16T06:08:42;1.00;;;1.00;;
12800;SDS011;6464;42.494;27.470;2023-07-16T06:11:08;1.20;;;1.20;;
12800;SDS011;6464;42.494;27.470;2023-07-16T06:13:38;1.20;;;1.20;;
12800;SDS011;6464;42.494;27.470;2023-07-16T06:16:06;1.30;;;1.30;;
12800;SDS011;6464;42.494;27.470;2023-07-16T06:18:34;1.30;;;1.30;;
12800;SDS011;6464;42.494;27.470;2023-07-16T06:21:01;1.67;;;1.67;;
12800;SDS011;6464;42.494;27.470;2023-07-16T06:23:29;1.50;;;1.50;;
12800;SDS011;6464;42.494;27.470;2023-07-16T06:25:56;1.70;;;1.70;;
12800;SDS011;6464;42.494;27.470;2023-07-16T06:28:26;1.80;;;1.80;;
12800;SDS011;6464;42.494;27.470;2023-07-16T06:30:54;2.30;;;2.30;;
12800;SDS011;6464;42.494;27.470;2023-07-16T06:33:22;2.63;;;2.63;;
12800;SDS011;6464;42.494;27.470;2023-07-16T06:38:49;2.88;;;2.88;;
12800;SDS011;6464;42.494;27.470;2023-07-16T06:41:19;3.53;;;3.53;;
12800;SDS011;6464;42.494;27.470;2023-07-16T06:43:46;2.83;;;2.83;;
12800;SDS011;6464;42.494;27.470;2023-07-16T06:46:13;3.30;;;3.30;;
12800;SDS011;6464;42.494;27.470;2023-07-16T06:48:39;3.58;;;3.58;;
12800;SDS011;6464;42.494;27.470;2023-07-16T06:51:09;3.60;;;3.60;;
12800;SDS011;6464;42.494;27.470;2023-07-16T06:53:42;4.00;;;3.90;;
12800;SDS011;6464;42.494;27.470;2023-07-16T06:56:10;3.50;;;3.50;;
12800;SDS011;6464;42.494;27.470;2023-07-16T06:58:38;3.20;;;3.20;;
12800;SDS011;6464;42.494;27.470;2023-07-16T07:01:05;3.50;;;3.50;;
12800;SDS011;6464;42.494;27.470;2023-07-16T07:03:32;3.40;;;3.40;;
12800;SDS011;6464;42.494;27.470;2023-07-16T07:06:01;3.20;;;3.20;;
12800;SDS011;6464;42.494;27.470;2023-07-16T07:08:28;3.15;;;3.15;;
12800;SDS011;6464;42.494;27.470;2023-07-16T07:10:55;3.00;;;3.00;;
12800;SDS011;6464;42.494;27.470;2023-07-16T07:13:26;2.92;;;2.92;;
12800;SDS011;6464;42.494;27.470;2023-07-16T07:15:54;3.03;;;3.03;;
12800;SDS011;6464;42.494;27.470;2023-07-16T07:18:21;3.05;;;3.05;;
12800;SDS011;6464;42.494;27.470;2023-07-16T07:20:48;3.10;;;3.10;;
12800;SDS011;6464;42.494;27.470;2023-07-16T07:23:18;3.30;;;3.30;;
12800;SDS011;6464;42.494;27.470;2023-07-16T07:25:50;3.00;;;3.00;;
12800;SDS011;6464;42.494;27.470;2023-07-16T07:28:20;3.03;;;3.03;;
12800;SDS011;6464;42.494;27.470;2023-07-16T07:30:48;3.47;;;3.47;;
12800;SDS011;6464;42.494;27.470;2023-07-16T07:33:15;3.63;;;3.63;;
12800;SDS011;6464;42.494;27.470;2023-07-16T07:35:42;4.10;;;4.00;;
12800;SDS011;6464;42.494;27.470;2023-07-16T07:38:11;3.80;;;3.70;;
12800;SDS011;6464;42.494;27.470;2023-07-16T07:40:42;4.90;;;4.80;;
12800;SDS011;6464;42.494;27.470;2023-07-16T07:43:09;4.40;;;4.30;;
12800;SDS011;6464;42.494;27.470;2023-07-16T07:45:36;4.80;;;4.70;;
12800;SDS011;6464;42.494;27.470;2023-07-16T07:48:04;4.90;;;4.80;;
12800;SDS011;6464;42.494;27.470;2023-07-16T07:50:31;7.38;;;7.18;;
12800;SDS011;6464;42.494;27.470;2023-07-16T07:52:58;4.63;;;4.53;;
12800;SDS011;6464;42.494;27.470;2023-07-16T07:55:25;4.57;;;4.47;;
12800;SDS011;6464;42.494;27.470;2023-07-16T07:57:55;4.80;;;4.70;;
12800;SDS011;6464;42.494;27.470;2023-07-16T08:00:23;4.60;;;4.50;;
12800;SDS011;6464;42.494;27.470;2023-07-16T08:02:51;4.80;;;4.70;;
12800;SDS011;6464;42.494;27.470;2023-07-16T08:05:20;4.30;;;4.20;;
12800;SDS011;6464;42.494;27.470;2023-07-16T08:07:47;4.43;;;4.32;;
12800;SDS011;6464;42.494;27.470;2023-07-16T08:10:17;4.60;;;4.50;;
12800;SDS011;6464;42.494;27.470;2023-07-16T08:12:44;4.70;;;4.60;;
12800;SDS011;6464;42.494;27.470;2023-07-16T08:15:12;4.30;;;4.20;;
12800;SDS011;6464;42.494;27.470;2023-07-16T08:17:43;4.15;;;4.05;;
12800;SDS011;6464;42.494;27.470;2023-07-16T08:20:14;4.30;;;4.20;;
12800;SDS011;6464;42.494;27.470;2023-07-16T08:22:43;4.15;;;4.05;;
12800;SDS011;6464;42.494;27.470;2023-07-16T08:25:12;4.00;;;3.90;;
12800;SDS011;6464;42.494;27.470;2023-07-16T08:27:45;4.22;;;4.13;;
12800;SDS011;6464;42.494;27.470;2023-07-16T08:30:13;4.25;;;4.15;;
12800;SDS011;6464;42.494;27.470;2023-07-16T08:32:40;4.40;;;4.30;;
12800;SDS011;6464;42.494;27.470;2023-07-16T08:35:07;4.30;;;4.20;;
12800;SDS011;6464;42.494;27.470;2023-07-16T08:37:40;4.07;;;3.97;;
12800;SDS011;6464;42.494;27.470;2023-07-16T08:40:18;3.78;;;3.70;;
12800;SDS011;6464;42.494;27.470;2023-07-16T08:42:46;4.00;;;3.90;;
12800;SDS011;6464;42.494;27.470;2023-07-16T08:45:17;4.25;;;4.15;;
12800;SDS011;6464;42.494;27.470;2023-07-16T08:47:48;4.38;;;4.28;;
12800;SDS011;6464;42.494;27.470;2023-07-16T08:50:17;4.40;;;4.30;;
12800;SDS011;6464;42.494;27.470;2023-07-16T08:52:49;4.50;;;4.40;;
12800;SDS011;6464;42.494;27.470;2023-07-16T08:55:16;4.38;;;4.28;;
12800;SDS011;6464;42.494;27.470;2023-07-16T08:57:46;4.65;;;4.55;;
12800;SDS011;6464;42.494;27.470;2023-07-16T09:00:19;5.00;;;4.90;;
12800;SDS011;6464;42.494;27.470;2023-07-16T09:02:51;5.07;;;4.97;;
12800;SDS011;6464;42.494;27.470;2023-07-16T09:05:22;4.90;;;4.80;;
12800;SDS011;6464;42.494;27.470;2023-07-16T09:07:50;4.75;;;4.65;;
12800;SDS011;6464;42.494;27.470;2023-07-16T09:10:17;4.70;;;4.60;;
12800;SDS011;6464;42.494;27.470;2023-07-16T09:12:44;4.57;;;4.47;;
12800;SDS011;6464;42.494;27.470;2023-07-16T09:15:13;4.70;;;4.60;;
12800;SDS011;6464;42.494;27.470;2023-07-16T09:17:46;4.57;;;4.47;;
12800;SDS011;6464;42.494;27.470;2023-07-16T09:20:16;4.57;;;4.47;;
12800;SDS011;6464;42.494;27.470;2023-07-16T09:22:49;4.38;;;4.28;;
12800;SDS011;6464;42.494;27.470;2023-07-16T09:25:25;4.40;;;4.30;;
12800;SDS011;6464;42.494;27.470;2023-07-16T09:27:52;4.80;;;4.70;;
12800;SDS011;6464;42.494;27.470;2023-07-16T09:30:19;4.57;;;4.47;;
12800;SDS011;6464;42.494;27.470;2023-07-16T09:32:47;4.60;;;4.50;;
12800;SDS011;6464;42.494;27.470;2023-07-16T09:35:14;5.88;;;5.78;;
12800;SDS011;6464;42.494;27.470;2023-07-16T09:37:44;4.78;;;4.68;;
12800;SDS011;6464;42.494;27.470;2023-07-16T09:40:12;4.82;;;4.72;;
12800;SDS011;6464;42.494;27.470;2023-07-16T09:42:40;4.88;;;4.78;;
12800;SDS011;6464;42.494;27.470;2023-07-16T09:45:08;5.40;;;5.30;;
12800;SDS011;6464;42.494;27.470;2023-07-16T09:47:46;4.88;;;4.78;;
12800;SDS011;6464;42.494;27.470;2023-07-16T09:50:14;6.65;;;6.45;;
12800;SDS011;6464;42.494;27.470;2023-07-16T09:52:40;5.30;;;5.20;;
12800;SDS011;6464;42.494;27.470;2023-07-16T09:55:17;5.30;;;5.20;;
12800;SDS011;6464;42.494;27.470;2023-07-16T09:57:48;5.28;;;5.18;;
12800;SDS011;6464;42.494;27.470;2023-07-16T10:00:20;5.10;;;5.00;;
12800;SDS011;6464;42.494;27.470;2023-07-16T10:02:51;5.40;;;5.30;;
12800;SDS011;6464;42.494;27.470;2023-07-16T10:05:19;5.00;;;4.90;;
12800;SDS011;6464;42.494;27.470;2023-07-16T10:07:53;8.60;;;8.40;;
12800;SDS011;6464;42.494;27.470;2023-07-16T10:10:27;6.20;;;6.10;;
12800;SDS011;6464;42.494;27.470;2023-07-16T10:13:08;5.20;;;5.10;;
12800;SDS011;6464;42.494;27.470;2023-07-16T10:15:38;5.75;;;5.65;;
12800;SDS011;6464;42.494;27.470;2023-07-16T10:18:10;5.65;;;5.55;;
12800;SDS011;6464;42.494;27.470;2023-07-16T10:20:37;5.35;;;5.25;;
12800;SDS011;6464;42.494;27.470;2023-07-16T10:23:11;9.60;;;9.30;;
12800;SDS011;6464;42.494;27.470;2023-07-16T10:25:40;5.75;;;5.65;;
12800;SDS011;6464;42.494;27.470;2023-07-16T10:28:24;5.97;;;5.88;;
12800;SDS011;6464;42.494;27.470;2023-07-16T10:30:51;5.38;;;5.28;;
12800;SDS011;6464;42.494;27.470;2023-07-16T10:33:19;5.20;;;5.10;;
12800;SDS011;6464;42.494;27.470;2023-07-16T10:35:46;5.15;;;5.05;;
12800;SDS011;6464;42.494;27.470;2023-07-16T10:38:15;6.88;;;6.68;;
12800;SDS011;6464;42.494;27.470;2023-07-16T10:40:44;5.88;;;5.78;;
12800;SDS011;6464;42.494;27.470;2023-07-16T10:43:12;6.78;;;6.57;;
12800;SDS011;6464;42.494;27.470;2023-07-16T10:45:45;5.40;;;5.30;;
12800;SDS011;6464;42.494;27.470;2023-07-16T10:48:13;5.40;;;5.30;;
12800;SDS011;6464;42.494;27.470;2023-07-16T10:50:40;5.30;;;5.20;;
12800;SDS011;6464;42.494;27.470;2023-07-16T10:53:09;5.65;;;5.55;;
12800;SDS011;6464;42.494;27.470;2023-07-16T10:55:38;6.88;;;6.68;;
12800;SDS011;6464;42.494;27.470;2023-07-16T10:58:09;6.65;;;6.45;;
12800;SDS011;6464;42.494;27.470;2023-07-16T11:00:37;5.50;;;5.40;;
12800;SDS011;6464;42.494;27.470;2023-07-16T11:03:05;5.10;;;5.00;;
12800;SDS011;6464;42.494;27.470;2023-07-16T11:05:33;5.30;;;5.20;;
12800;SDS011;6464;42.494;27.470;2023-07-16T11:08:06;10.00;;;9.70;;
12800;SDS011;6464;42.494;27.470;2023-07-16T11:10:33;7.00;;;6.80;;
12800;SDS011;6464;42.494;27.470;2023-07-16T11:13:00;8.93;;;8.63;;
12800;SDS011;6464;42.494;27.470;2023-07-16T11:15:34;5.63;;;5.53;;
12800;SDS011;6464;42.494;27.470;2023-07-16T11:18:03;5.50;;;5.40;;
12800;SDS011;6464;42.494;27.470;2023-07-16T11:20:30;9.85;;;9.55;;
12800;SDS011;6464;42.494;27.470;2023-07-16T11:22:57;6.50;;;6.30;;
12800;SDS011;6464;42.494;27.470;2023-07-16T11:25:25;7.35;;;7.15;;
12800;SDS011;6464;42.494;27.470;2023-07-16T11:27:55;5.80;;;5.70;;
12800;SDS011;6464;42.494;27.470;2023-07-16T11:30:22;5.82;;;5.72;;
12800;SDS011;6464;42.494;27.470;2023-07-16T11:32:54;10.18;;;9.88;;
12800;SDS011;6464;42.494;27.470;2023-07-16T11:35:20;7.57;;;7.38;;
12800;SDS011;6464;42.494;27.470;2023-07-16T11:37:49;7.45;;;7.25;;
12800;SDS011;6464;42.494;27.470;2023-07-16T11:40:18;5.78;;;5.68;;
12800;SDS011;6464;42.494;27.470;2023-07-16T11:42:47;5.80;;;5.70;;
12800;SDS011;6464;42.494;27.470;2023-07-16T11:45:17;5.63;;;5.53;;
12800;SDS011;6464;42.494;27.470;2023-07-16T11:47:47;9.45;;;9.15;;
12800;SDS011;6464;42.494;27.470;2023-07-16T11:50:26;8.30;;;8.10;;
12800;SDS011;6464;42.494;27.470;2023-07-16T11:52:58;7.50;;;7.30;;
12800;SDS011;6464;42.494;27.470;2023-07-16T11:55:26;6.10;;;6.00;;
12800;SDS011;6464;42.494;27.470;2023-07-16T11:57:54;6.43;;;6.22;;
12800;SDS011;6464;42.494;27.470;2023-07-16T12:00:24;12.82;;;12.43;;
12800;SDS011;6464;42.494;27.470;2023-07-16T12:02:53;10.45;;;10.15;;
12800;SDS011;6464;42.494;27.470;2023-07-16T12:05:19;9.60;;;9.30;;
12800;SDS011;6464;42.494;27.470;2023-07-16T12:07:50;12.48;;;12.07;;
12800;SDS011;6464;42.494;27.470;2023-07-16T12:10:17;6.00;;;5.90;;
12800;SDS011;6464;42.494;27.470;2023-07-16T12:12:45;8.60;;;8.35;;
12800;SDS011;6464;42.494;27.470;2023-07-16T12:15:12;9.10;;;8.80;;
12800;SDS011;6464;42.494;27.470;2023-07-16T12:17:46;12.63;;;12.23;;
12800;SDS011;6464;42.494;27.470;2023-07-16T12:20:13;8.40;;;8.20;;
12800;SDS011;6464;42.494;27.470;2023-07-16T12:22:41;14.20;;;13.70;;
12800;SDS011;6464;42.494;27.470;2023-07-16T12:25:13;5.82;;;5.72;;
12800;SDS011;6464;42.494;27.470;2023-07-16T12:27:41;6.00;;;5.90;;
12800;SDS011;6464;42.494;27.470;2023-07-16T12:30:08;8.50;;;8.30;;
12800;SDS011;6464;42.494;27.470;2023-07-16T12:32:38;11.82;;;11.43;;
12800;SDS011;6464;42.494;27.470;2023-07-16T12:35:10;9.70;;;9.40;;
12800;SDS011;6464;42.494;27.470;2023-07-16T12:37:38;12.52;;;12.13;;
12800;SDS011;6464;42.494;27.470;2023-07-16T12:40:06;5.65;;;5.55;;
12800;SDS011;6464;42.494;27.470;2023-07-16T12:42:35;5.93;;;5.82;;
12800;SDS011;6464;42.494;27.470;2023-07-16T12:45:07;11.23;;;10.82;;
12800;SDS011;6464;42.494;27.470;2023-07-16T12:47:34;9.50;;;9.20;;
12800;SDS011;6464;42.494;27.470;2023-07-16T12:50:04;8.27;;;8.07;;
12800;SDS011;6464;42.494;27.470;2023-07-16T12:52:34;10.80;;;10.50;;
12800;SDS011;6464;42.494;27.470;2023-07-16T12:55:01;14.25;;;13.75;;
12800;SDS011;6464;42.494;27.470;2023-07-16T12:57:30;13.00;;;12.60;;
12800;SDS011;6464;42.494;27.470;2023-07-16T12:59:58;14.40;;;13.90;;
12800;SDS011;6464;42.494;27.470;2023-07-16T13:02:26;5.65;;;5.55;;
12800;SDS011;6464;42.494;27.470;2023-07-16T13:04:55;5.75;;;5.65;;
12800;SDS011;6464;42.494;27.470;2023-07-16T13:07:22;10.27;;;9.98;;
12800;SDS011;6464;42.494;27.470;2023-07-16T13:09:49;7.10;;;6.90;;
12800;SDS011;6464;42.494;27.470;2023-07-16T13:12:16;10.05;;;9.75;;
12800;SDS011;6464;42.494;27.470;2023-07-16T13:14:42;14.38;;;13.88;;
12800;SDS011;6464;42.494;27.470;2023-07-16T13:17:11;15.02;;;14.52;;
12800;SDS011;6464;42.494;27.470;2023-07-16T13:19:41;14.27;;;13.77;;
12800;SDS011;6464;42.494;27.470;2023-07-16T13:22:08;15.90;;;15.32;;
12800;SDS011;6464;42.494;27.470;2023-07-16T13:24:35;14.50;;;14.00;;
12800;SDS011;6464;42.494;27.470;2023-07-16T13:27:19;15.57;;;15.07;;
12800;SDS011;6464;42.494;27.470;2023-07-16T13:29:46;16.83;;;16.23;;
12800;SDS011;6464;42.494;27.470;2023-07-16T13:32:16;15.77;;;15.23;;
12800;SDS011;6464;42.494;27.470;2023-07-16T13:34:46;6.10;;;6.00;;
12800;SDS011;6464;42.494;27.470;2023-07-16T13:37:14;6.50;;;6.30;;
12800;SDS011;6464;42.494;27.470;2023-07-16T13:39:43;8.20;;;8.00;;
12800;SDS011;6464;42.494;27.470;2023-07-16T13:42:14;10.32;;;10.02;;
12800;SDS011;6464;42.494;27.470;2023-07-16T13:44:41;12.13;;;11.73;;
12800;SDS011;6464;42.494;27.470;2023-07-16T13:47:08;15.48;;;14.98;;
12800;SDS011;6464;42.494;27.470;2023-07-16T13:49:40;15.02;;;14.52;;
12800;SDS011;6464;42.494;27.470;2023-07-16T13:52:07;15.68;;;15.15;;
12800;SDS011;6464;42.494;27.470;2023-07-16T13:54:34;14.63;;;14.13;;
12800;SDS011;6464;42.494;27.470;2023-07-16T13:57:01;15.65;;;15.15;;
12800;SDS011;6464;42.494;27.470;2023-07-16T13:59:28;13.30;;;12.90;;
12800;SDS011;6464;42.494;27.470;2023-07-16T14:01:58;16.25;;;15.65;;
12800;SDS011;6464;42.494;27.470;2023-07-16T14:04:28;14.98;;;14.48;;
12800;SDS011;6464;42.494;27.470;2023-07-16T14:07:05;14.48;;;13.98;;
12800;SDS011;6464;42.494;27.470;2023-07-16T14:09:32;13.63;;;13.13;;
12800;SDS011;6464;42.494;27.470;2023-07-16T14:11:59;14.35;;;13.85;;
12800;SDS011;6464;42.494;27.470;2023-07-16T14:14:29;14.93;;;14.43;;
12800;SDS011;6464;42.494;27.470;2023-07-16T14:16:55;15.70;;;15.20;;
12800;SDS011;6464;42.494;27.470;2023-07-16T14:19:22;6.30;;;6.10;;
12800;SDS011;6464;42.494;27.470;2023-07-16T14:21:51;14.25;;;13.75;;
12800;SDS011;6464;42.494;27.470;2023-07-16T14:24:19;7.70;;;7.50;;
12800;SDS011;6464;42.494;27.470;2023-07-16T14:26:48;6.40;;;6.20;;
12800;SDS011;6464;42.494;27.470;2023-07-16T14:29:15;7.00;;;6.80;;
12800;SDS011;6464;42.494;27.470;2023-07-16T14:31:42;11.60;;;11.20;;
12800;SDS011;6464;42.494;27.470;2023-07-16T14:34:08;12.88;;;12.48;;
12800;SDS011;6464;42.494;27.470;2023-07-16T14:36:37;11.05;;;10.73;;
12800;SDS011;6464;42.494;27.470;2023-07-16T14:39:06;10.85;;;10.55;;
12800;SDS011;6464;42.494;27.470;2023-07-16T14:41:34;11.32;;;10.93;;
12800;SDS011;6464;42.494;27.470;2023-07-16T14:44:03;12.70;;;12.30;;
12800;SDS011;6464;42.494;27.470;2023-07-16T14:46:33;10.70;;;10.40;;
12800;SDS011;6464;42.494;27.470;2023-07-16T14:49:00;14.18;;;13.68;;
12800;SDS011;6464;42.494;27.470;2023-07-16T14:51:29;14.60;;;14.10;;
12800;SDS011;6464;42.494;27.470;2023-07-16T14:53:56;14.43;;;13.93;;
12800;SDS011;6464;42.494;27.470;2023-07-16T14:56:23;12.20;;;11.80;;
12800;SDS011;6464;42.494;27.470;2023-07-16T14:58:53;12.93;;;12.52;;
12800;SDS011;6464;42.494;27.470;2023-07-16T15:01:20;12.10;;;11.70;;
12800;SDS011;6464;42.494;27.470;2023-07-16T15:03:50;12.05;;;11.65;;
12800;SDS011;6464;42.494;27.470;2023-07-16T15:06:19;11.50;;;11.10;;
12800;SDS011;6464;42.494;27.470;2023-07-16T15:08:47;11.60;;;11.20;;
12800;SDS011;6464;42.494;27.470;2023-07-16T15:11:15;11.68;;;11.27;;
12800;SDS011;6464;42.494;27.470;2023-07-16T15:13:42;12.45;;;12.05;;
12800;SDS011;6464;42.494;27.470;2023-07-16T15:16:14;12.43;;;12.02;;
12800;SDS011;6464;42.494;27.470;2023-07-16T15:18:41;14.00;;;13.50;;
12800;SDS011;6464;42.494;27.470;2023-07-16T15:21:08;13.27;;;12.88;;
12800;SDS011;6464;42.494;27.470;2023-07-16T15:23:37;13.73;;;13.23;;
12800;SDS011;6464;42.494;27.470;2023-07-16T15:26:04;13.50;;;13.05;;
12800;SDS011;6464;42.494;27.470;2023-07-16T15:28:33;14.20;;;13.70;;
12800;SDS011;6464;42.494;27.470;2023-07-16T15:31:02;14.23;;;13.73;;
12800;SDS011;6464;42.494;27.470;2023-07-16T15:33:30;13.48;;;13.07;;
12800;SDS011;6464;42.494;27.470;2023-07-16T15:35:57;14.02;;;13.52;;
12800;SDS011;6464;42.494;27.470;2023-07-16T15:38:25;13.05;;;12.65;;
12800;SDS011;6464;42.494;27.470;2023-07-16T15:40:52;13.68;;;13.20;;
12800;SDS011;6464;42.494;27.470;2023-07-16T15:43:19;13.63;;;13.13;;
12800;SDS011;6464;42.494;27.470;2023-07-16T15:45:46;12.90;;;12.50;;
12800;SDS011;6464;42.494;27.470;2023-07-16T15:48:13;13.35;;;12.95;;
12800;SDS011;6464;42.494;27.470;2023-07-16T15:50:45;12.60;;;12.20;;
12800;SDS011;6464;42.494;27.470;2023-07-16T15:53:15;13.77;;;13.27;;
12800;SDS011;6464;42.494;27.470;2023-07-16T15:55:42;13.43;;;13.02;;
12800;SDS011;6464;42.494;27.470;2023-07-16T15:58:09;13.35;;;12.95;;
12800;SDS011;6464;42.494;27.470;2023-07-16T16:00:37;12.85;;;12.45;;
12800;SDS011;6464;42.494;27.470;2023-07-16T16:03:04;13.77;;;13.27;;
12800;SDS011;6464;42.494;27.470;2023-07-16T16:05:33;12.55;;;12.15;;
12800;SDS011;6464;42.494;27.470;2023-07-16T16:08:14;12.57;;;12.18;;
12800;SDS011;6464;42.494;27.470;2023-07-16T16:10:41;12.57;;;12.18;;
12800;SDS011;6464;42.494;27.470;2023-07-16T16:13:09;12.55;;;12.15;;
12800;SDS011;6464;42.494;27.470;2023-07-16T16:15:36;12.57;;;12.18;;
12800;SDS011;6464;42.494;27.470;2023-07-16T16:18:03;12.18;;;11.77;;
12800;SDS011;6464;42.494;27.470;2023-07-16T16:20:30;11.07;;;10.75;;
12800;SDS011;6464;42.494;27.470;2023-07-16T16:22:58;12.38;;;11.98;;
12800;SDS011;6464;42.494;27.470;2023-07-16T16:25:28;12.35;;;11.95;;
12800;SDS011;6464;42.494;27.470;2023-07-16T16:27:56;12.52;;;12.13;;
12800;SDS011;6464;42.494;27.470;2023-07-16T16:30:26;11.57;;;11.18;;
12800;SDS011;6464;42.494;27.470;2023-07-16T16:32:54;11.45;;;11.05;;
12800;SDS011;6464;42.494;27.470;2023-07-16T16:35:24;12.45;;;12.05;;
12800;SDS011;6464;42.494;27.470;2023-07-16T16:37:51;11.02;;;10.70;;
12800;SDS011;6464;42.494;27.470;2023-07-16T16:40:21;11.60;;;11.20;;
12800;SDS011;6464;42.494;27.470;2023-07-16T16:42:50;11.38;;;10.98;;
12800;SDS011;6464;42.494;27.470;2023-07-16T16:45:16;12.55;;;12.15;;
12800;SDS011;6464;42.494;27.470;2023-07-16T16:47:49;11.77;;;11.38;;
12800;SDS011;6464;42.494;27.470;2023-07-16T16:50:16;10.93;;;10.63;;
12800;SDS011;6464;42.494;27.470;2023-07-16T16:52:43;10.55;;;10.25;;
12800;SDS011;6464;42.494;27.470;2023-07-16T16:55:11;10.68;;;10.38;;
12800;SDS011;6464;42.494;27.470;2023-07-16T16:57:40;11.60;;;11.20;;
12800;SDS011;6464;42.494;27.470;2023-07-16T17:00:10;11.52;;;11.13;;
12800;SDS011;6464;42.494;27.470;2023-07-16T17:02:38;11.00;;;10.68;;
12800;SDS011;6464;42.494;27.470;2023-07-16T17:05:09;10.50;;;10.20;;
12800;SDS011;6464;42.494;27.470;2023-07-16T17:07:39;11.27;;;10.88;;
12800;SDS011;6464;42.494;27.470;2023-07-16T17:10:09;9.70;;;9.40;;
12800;SDS011;6464;42.494;27.470;2023-07-16T17:12:36;8.85;;;8.55;;
12800;SDS011;6464;42.494;27.470;2023-07-16T17:15:03;8.40;;;8.20;;
12800;SDS011;6464;42.494;27.470;2023-07-16T17:17:32;7.50;;;7.30;;
12800;SDS011;6464;42.494;27.470;2023-07-16T17:20:05;8.40;;;8.20;;
12800;SDS011;6464;42.494;27.470;2023-07-16T17:22:36;8.18;;;7.97;;
12800;SDS011;6464;42.494;27.470;2023-07-16T17:25:04;9.10;;;8.80;;
12800;SDS011;6464;42.494;27.470;2023-07-16T17:27:31;8.75;;;8.45;;
12800;SDS011;6464;42.494;27.470;2023-07-16T17:29:58;8.95;;;8.65;;
12800;SDS011;6464;42.494;27.470;2023-07-16T17:32:25;8.57;;;8.35;;
12800;SDS011;6464;42.494;27.470;2023-07-16T17:34:58;9.50;;;9.20;;
12800;SDS011;6464;42.494;27.470;2023-07-16T17:37:28;9.48;;;9.18;;
12800;SDS011;6464;42.494;27.470;2023-07-16T17:39:57;9.40;;;9.10;;
12800;SDS011;6464;42.494;27.470;2023-07-16T17:42:26;9.40;;;9.10;;
12800;SDS011;6464;42.494;27.470;2023-07-16T17:44:55;9.77;;;9.48;;
12800;SDS011;6464;42.494;27.470;2023-07-16T17:47:24;10.10;;;9.80;;
12800;SDS011;6464;42.494;27.470;2023-07-16T17:49:51;9.45;;;9.15;;
12800;SDS011;6464;42.494;27.470;2023-07-16T17:52:23;8.50;;;8.30;;
12800;SDS011;6464;42.494;27.470;2023-07-16T17:54:50;6.35;;;6.15;;
12800;SDS011;6464;42.494;27.470;2023-07-16T17:57:17;6.40;;;6.20;;
12800;SDS011;6464;42.494;27.470;2023-07-16T17:59:44;6.53;;;6.32;;
12800;SDS011;6464;42.494;27.470;2023-07-16T18:02:11;6.28;;;6.07;;
12800;SDS011;6464;42.494;27.470;2023-07-16T18:04:38;6.28;;;6.07;;
12800;SDS011;6464;42.494;27.470;2023-07-16T18:07:07;6.28;;;6.07;;
12800;SDS011;6464;42.494;27.470;2023-07-16T18:09:35;6.50;;;6.30;;
12800;SDS011;6464;42.494;27.470;2023-07-16T18:12:05;6.00;;;5.90;;
12800;SDS011;6464;42.494;27.470;2023-07-16T18:14:32;5.82;;;5.72;;
12800;SDS011;6464;42.494;27.470;2023-07-16T18:17:01;5.70;;;5.60;;
12800;SDS011;6464;42.494;27.470;2023-07-16T18:19:31;6.18;;;6.03;;
12800;SDS011;6464;42.494;27.470;2023-07-16T18:21:58;5.70;;;5.60;;
12800;SDS011;6464;42.494;27.470;2023-07-16T18:24:26;6.00;;;5.90;;
12800;SDS011;6464;42.494;27.470;2023-07-16T18:26:56;5.68;;;5.57;;
12800;SDS011;6464;42.494;27.470;2023-07-16T18:29:23;5.85;;;5.75;;
12800;SDS011;6464;42.494;27.470;2023-07-16T18:31:51;5.78;;;5.68;;
12800;SDS011;6464;42.494;27.470;2023-07-16T18:34:18;5.70;;;5.60;;
12800;SDS011;6464;42.494;27.470;2023-07-16T18:36:45;5.50;;;5.40;;
12800;SDS011;6464;42.494;27.470;2023-07-16T18:39:12;5.53;;;5.43;;
12800;SDS011;6464;42.494;27.470;2023-07-16T18:41:41;5.50;;;5.40;;
12800;SDS011;6464;42.494;27.470;2023-07-16T18:44:09;5.32;;;5.22;;
12800;SDS011;6464;42.494;27.470;2023-07-16T18:46:37;5.30;;;5.20;;
12800;SDS011;6464;42.494;27.470;2023-07-16T18:49:05;5.40;;;5.30;;
12800;SDS011;6464;42.494;27.470;2023-07-16T18:51:32;5.30;;;5.20;;
12800;SDS011;6464;42.494;27.470;2023-07-16T18:53:59;5.40;;;5.30;;
12800;SDS011;6464;42.494;27.470;2023-07-16T18:56:28;5.40;;;5.30;;
12800;SDS011;6464;42.494;27.470;2023-07-16T18:58:55;5.32;;;5.22;;
12800;SDS011;6464;42.494;27.470;2023-07-16T19:01:29;5.30;;;5.20;;
12800;SDS011;6464;42.494;27.470;2023-07-16T19:04:00;5.20;;;5.10;;
12800;SDS011;6464;42.494;27.470;2023-07-16T19:06:29;5.07;;;4.97;;
12800;SDS011;6464;42.494;27.470;2023-07-16T19:08:56;4.80;;;4.70;;
12800;SDS011;6464;42.494;27.470;2023-07-16T19:11:22;4.50;;;4.40;;
12800;SDS011;6464;42.494;27.470;2023-07-16T19:13:51;4.60;;;4.50;;